createdAt,value
2023-01-29T00:00:01.420Z,1002.41
2023-01-29T00:01:01.428Z,1002.47
2023-01-29T00:02:01.465Z,1002.43
2023-01-29T00:03:01.404Z,1002.38
2023-01-29T00:04:02.376Z,1002.36
2023-01-29T00:05:13.019Z,1002.44
2023-01-29T00:06:03.385Z,1002.44
2023-01-29T00:07:01.354Z,1002.41
2023-01-29T00:08:01.338Z,1002.44
2023-01-29T00:09:01.330Z,1002.42
2023-01-29T00:10:01.335Z,1002.36
2023-01-29T00:11:01.317Z,1002.38
2023-01-29T00:12:01.300Z,1002.31
2023-01-29T00:13:01.285Z,1002.35
2023-01-29T00:14:01.278Z,1002.30
2023-01-29T00:15:01.262Z,1002.26
2023-01-29T00:16:01.268Z,1002.26
2023-01-29T00:17:01.460Z,1002.30
2023-01-29T00:18:01.247Z,1002.29
2023-01-29T00:19:01.223Z,1002.28
2023-01-29T00:20:01.222Z,1002.21
2023-01-29T00:21:01.214Z,1002.22
2023-01-29T00:22:01.224Z,1002.19
2023-01-29T00:23:01.180Z,1002.20
2023-01-29T00:24:01.287Z,1002.14
2023-01-29T00:25:01.180Z,1002.10
2023-01-29T00:26:01.157Z,1002.07
2023-01-29T00:27:01.143Z,1002.07
2023-01-29T00:28:01.165Z,1002.03
2023-01-29T00:29:01.126Z,1002.08
2023-01-29T00:30:01.119Z,1002.12
2023-01-29T00:31:01.164Z,1002.16
2023-01-29T00:32:01.244Z,1002.21
2023-01-29T00:33:01.114Z,1002.14
2023-01-29T00:34:01.104Z,1002.18
2023-01-29T00:35:01.071Z,1002.13
2023-01-29T00:36:01.063Z,1002.12
2023-01-29T00:37:01.053Z,1002.08
2023-01-29T00:38:01.043Z,1002.05
2023-01-29T00:39:01.046Z,1002.12
2023-01-29T00:40:01.045Z,1002.06
2023-01-29T00:41:01.018Z,1002.09
2023-01-29T00:42:01.015Z,1002.09
2023-01-29T00:43:00.997Z,1002.02
2023-01-29T00:44:01.005Z,1002.05
2023-01-29T00:45:00.979Z,1001.98
2023-01-29T00:46:01.010Z,1002.05
2023-01-29T00:47:00.956Z,1002.05
2023-01-29T00:48:00.958Z,1001.95
2023-01-29T00:49:01.011Z,1002.01
2023-01-29T00:50:01.930Z,1001.99
2023-01-29T00:51:00.936Z,1001.94
2023-01-29T00:52:00.920Z,1001.97
2023-01-29T00:53:00.899Z,1001.88
2023-01-29T00:54:00.883Z,1001.85
2023-01-29T00:55:00.935Z,1001.89
2023-01-29T00:56:00.861Z,1001.89
2023-01-29T00:57:00.861Z,1001.88
2023-01-29T00:58:00.848Z,1001.89
2023-01-29T00:59:00.869Z,1001.82
2023-01-29T01:00:00.866Z,1001.85
2023-01-29T01:01:00.883Z,1001.78
2023-01-29T01:02:00.851Z,1001.86
2023-01-29T01:03:00.808Z,1001.81
2023-01-29T01:04:00.795Z,1001.78
2023-01-29T01:05:32.727Z,1001.77
2023-01-29T01:06:00.784Z,1001.76
2023-01-29T01:07:00.770Z,1001.75
2023-01-29T01:08:00.816Z,1001.69
2023-01-29T01:09:00.783Z,1001.65
2023-01-29T01:10:00.796Z,1001.67
2023-01-29T01:11:00.733Z,1001.67
2023-01-29T01:12:00.758Z,1001.63
2023-01-29T01:13:00.723Z,1001.68
2023-01-29T01:14:00.737Z,1001.64
2023-01-29T01:15:00.744Z,1001.67
2023-01-29T01:16:00.927Z,1001.61
2023-01-29T01:17:00.710Z,1001.59
2023-01-29T01:18:00.679Z,1001.59
2023-01-29T01:19:00.717Z,1001.59
2023-01-29T01:20:00.667Z,1001.52
2023-01-29T01:21:00.739Z,1001.61
2023-01-29T01:22:00.641Z,1001.59
2023-01-29T01:23:00.619Z,1001.60
2023-01-29T01:24:00.675Z,1001.67
2023-01-29T01:25:00.614Z,1001.63
2023-01-29T01:26:00.652Z,1001.56
2023-01-29T01:27:00.616Z,1001.60
2023-01-29T01:28:01.450Z,1001.58
2023-01-29T01:29:00.563Z,1001.66
2023-01-29T01:30:00.591Z,1001.69
2023-01-29T01:31:00.600Z,1001.63
2023-01-29T01:32:00.625Z,1001.55
2023-01-29T01:33:00.550Z,1001.51
2023-01-29T01:34:00.530Z,1001.59
2023-01-29T01:35:01.541Z,1001.51
2023-01-29T01:36:00.549Z,1001.55
2023-01-29T01:37:00.496Z,1001.57
2023-01-29T01:38:00.491Z,1001.55
2023-01-29T01:39:00.471Z,1001.57
2023-01-29T01:40:00.499Z,1001.56
2023-01-29T01:41:00.493Z,1001.58
2023-01-29T01:42:00.457Z,1001.64
2023-01-29T01:43:00.447Z,1001.63
2023-01-29T01:44:00.431Z,1001.63
2023-01-29T01:45:00.400Z,1001.60
2023-01-29T01:46:00.549Z,1001.61
2023-01-29T01:47:00.449Z,1001.58
2023-01-29T01:48:00.377Z,1001.55
2023-01-29T01:49:00.408Z,1001.61
2023-01-29T01:50:00.367Z,1001.65
2023-01-29T01:51:00.363Z,1001.65
2023-01-29T01:52:00.346Z,1001.66
2023-01-29T01:53:00.329Z,1001.67
2023-01-29T01:54:00.334Z,1001.78
2023-01-29T01:55:00.312Z,1001.80
2023-01-29T01:56:00.333Z,1001.74
2023-01-29T01:57:00.298Z,1001.80
2023-01-29T01:58:01.303Z,1001.76
2023-01-29T01:59:00.370Z,1001.85
2023-01-29T02:00:00.267Z,1001.84
2023-01-29T02:01:00.307Z,1001.81
2023-01-29T02:02:00.331Z,1001.85
2023-01-29T02:03:00.232Z,1001.87
2023-01-29T02:04:00.247Z,1001.94
2023-01-29T02:05:00.243Z,1001.91
2023-01-29T02:06:00.240Z,1001.99
2023-01-29T02:07:00.219Z,1001.94
2023-01-29T02:08:00.208Z,1001.98
2023-01-29T02:09:00.192Z,1002.00
2023-01-29T02:10:00.174Z,1002.00
2023-01-29T02:11:00.161Z,1002.00
2023-01-29T02:12:00.166Z,1002.03
2023-01-29T02:13:00.167Z,1002.04
2023-01-29T02:14:00.141Z,1002.08
2023-01-29T02:15:00.138Z,1002.07
2023-01-29T02:16:00.113Z,1002.05
2023-01-29T02:17:00.124Z,1002.13
2023-01-29T02:18:00.134Z,1002.05
2023-01-29T02:19:00.129Z,1002.10
2023-01-29T02:20:00.107Z,1002.04
2023-01-29T02:21:00.073Z,1002.03
2023-01-29T02:22:00.048Z,1002.05
2023-01-29T02:23:02.045Z,1002.05
2023-01-29T02:24:00.173Z,1002.01
2023-01-29T02:25:00.061Z,1001.95
2023-01-29T02:26:00.025Z,1001.99
2023-01-29T02:27:00.033Z,1002.02
2023-01-29T02:28:00.025Z,1001.96
2023-01-29T02:29:00.004Z,1002.08
2023-01-29T02:29:59.966Z,1001.98
2023-01-29T02:31:00.019Z,1001.97
2023-01-29T02:31:59.975Z,1002.00
2023-01-29T02:32:59.971Z,1002.01
2023-01-29T02:33:59.951Z,1002.03
2023-01-29T02:34:59.933Z,1002.00
2023-01-29T02:35:59.962Z,1002.00
2023-01-29T02:36:59.929Z,1001.99
2023-01-29T02:38:00.920Z,1001.98
2023-01-29T02:38:59.914Z,1001.98
2023-01-29T02:39:59.909Z,1001.93
2023-01-29T02:40:59.905Z,1001.96
2023-01-29T02:41:59.867Z,1001.89
2023-01-29T02:42:59.861Z,1001.86
2023-01-29T02:43:59.841Z,1001.88
2023-01-29T02:44:59.835Z,1001.86
2023-01-29T02:45:59.925Z,1001.86
2023-01-29T02:46:59.835Z,1001.86
2023-01-29T02:47:59.805Z,1001.82
2023-01-29T02:48:59.814Z,1001.81
2023-01-29T02:49:59.790Z,1001.80
2023-01-29T02:50:59.791Z,1001.74
2023-01-29T02:51:59.787Z,1001.78
2023-01-29T02:52:59.772Z,1001.75
2023-01-29T02:53:59.760Z,1001.74
2023-01-29T02:54:59.747Z,1001.72
2023-01-29T02:55:59.736Z,1001.77
2023-01-29T02:56:59.764Z,1001.76
2023-01-29T02:57:59.707Z,1001.78
2023-01-29T02:58:59.723Z,1001.75
2023-01-29T02:59:59.687Z,1001.79
2023-01-29T03:00:59.756Z,1001.86
2023-01-29T03:01:59.773Z,1001.86
2023-01-29T03:02:59.659Z,1001.79
2023-01-29T03:03:59.679Z,1001.86
2023-01-29T03:04:59.627Z,1001.80
2023-01-29T03:05:59.632Z,1001.84
2023-01-29T03:06:59.632Z,1001.82
2023-01-29T03:07:59.599Z,1001.82
2023-01-29T03:08:59.630Z,1001.76
2023-01-29T03:09:59.604Z,1001.76
2023-01-29T03:10:59.585Z,1001.85
2023-01-29T03:11:59.571Z,1001.78
2023-01-29T03:12:59.576Z,1001.78
2023-01-29T03:13:59.569Z,1001.75
2023-01-29T03:14:59.540Z,1001.70
2023-01-29T03:15:59.528Z,1001.68
2023-01-29T03:16:59.524Z,1001.70
2023-01-29T03:17:59.509Z,1001.65
2023-01-29T03:18:59.523Z,1001.66
2023-01-29T03:19:59.490Z,1001.61
2023-01-29T03:20:59.483Z,1001.60
2023-01-29T03:21:59.734Z,1001.63
2023-01-29T03:22:59.455Z,1001.66
2023-01-29T03:23:59.526Z,1001.65
2023-01-29T03:24:59.447Z,1001.70
2023-01-29T03:25:59.453Z,1001.77
2023-01-29T03:26:59.416Z,1001.70
2023-01-29T03:27:59.409Z,1001.88
2023-01-29T03:28:59.396Z,1001.88
2023-01-29T03:29:59.382Z,1001.89
2023-01-29T03:30:59.491Z,1001.98
2023-01-29T03:31:59.447Z,1001.95
2023-01-29T03:32:59.359Z,1001.99
2023-01-29T03:33:59.346Z,1001.94
2023-01-29T03:34:59.337Z,1001.92
2023-01-29T03:35:59.349Z,1001.97
2023-01-29T03:36:59.339Z,1001.96
2023-01-29T03:37:59.322Z,1001.96
2023-01-29T03:38:59.310Z,1001.96
2023-01-29T03:39:59.281Z,1001.94
2023-01-29T03:40:59.284Z,1001.97
2023-01-29T03:41:59.303Z,1001.92
2023-01-29T03:42:59.331Z,1001.97
2023-01-29T03:43:59.260Z,1001.91
2023-01-29T03:45:00.259Z,1001.93
2023-01-29T03:45:59.298Z,1002.00
2023-01-29T03:46:59.259Z,1002.05
2023-01-29T03:47:59.218Z,1001.96
2023-01-29T03:48:59.241Z,1001.96
2023-01-29T03:49:59.191Z,1001.99
2023-01-29T03:50:59.197Z,1001.99
2023-01-29T03:51:59.174Z,1001.95
2023-01-29T03:52:59.175Z,1001.93
2023-01-29T03:53:59.173Z,1001.89
2023-01-29T03:54:59.147Z,1001.89
2023-01-29T03:55:59.139Z,1001.77
2023-01-29T03:56:59.158Z,1001.84
2023-01-29T03:57:59.111Z,1001.81
2023-01-29T03:58:59.266Z,1001.87
2023-01-29T03:59:59.098Z,1001.91
2023-01-29T04:00:59.084Z,1001.93
2023-01-29T04:01:59.113Z,1001.85
2023-01-29T04:02:59.074Z,1001.89
2023-01-29T04:03:59.112Z,1001.89
2023-01-29T04:04:59.055Z,1001.93
2023-01-29T04:05:59.038Z,1001.92
2023-01-29T04:06:59.088Z,1001.92
2023-01-29T04:07:59.030Z,1001.97
2023-01-29T04:08:59.004Z,1001.98
2023-01-29T04:09:59.001Z,1001.94
2023-01-29T04:10:59.000Z,1001.95
2023-01-29T04:11:58.976Z,1001.93
2023-01-29T04:12:59.008Z,1001.94
2023-01-29T04:13:58.956Z,1002.01
2023-01-29T04:14:58.954Z,1001.99
2023-01-29T04:15:58.923Z,1001.99
2023-01-29T04:16:58.936Z,1001.99
2023-01-29T04:17:58.951Z,1001.92
2023-01-29T04:18:58.907Z,1002.02
2023-01-29T04:19:58.924Z,1001.96
2023-01-29T04:20:58.898Z,1001.93
2023-01-29T04:21:58.888Z,1001.96
2023-01-29T04:22:58.898Z,1001.99
2023-01-29T04:23:58.949Z,1001.97
2023-01-29T04:24:58.857Z,1002.02
2023-01-29T04:25:58.848Z,1001.92
2023-01-29T04:26:58.823Z,1001.95
2023-01-29T04:27:58.840Z,1001.86
2023-01-29T04:28:58.844Z,1001.84
2023-01-29T04:29:58.799Z,1001.84
2023-01-29T04:30:58.965Z,1001.87
2023-01-29T04:31:58.851Z,1001.81
2023-01-29T04:32:58.784Z,1001.86
2023-01-29T04:33:58.757Z,1001.81
2023-01-29T04:34:58.764Z,1001.79
2023-01-29T04:35:58.781Z,1001.74
2023-01-29T04:36:58.754Z,1001.81
2023-01-29T04:37:58.724Z,1001.84
2023-01-29T04:38:59.727Z,1001.81
2023-01-29T04:39:58.688Z,1001.75
2023-01-29T04:40:59.712Z,1001.68
2023-01-29T04:41:58.701Z,1001.71
2023-01-29T04:42:58.696Z,1001.64
2023-01-29T04:43:58.692Z,1001.64
2023-01-29T04:44:58.677Z,1001.62
2023-01-29T04:45:58.654Z,1001.62
2023-01-29T04:46:58.722Z,1001.64
2023-01-29T04:47:58.646Z,1001.64
2023-01-29T04:48:58.628Z,1001.61
2023-01-29T04:49:58.611Z,1001.68
2023-01-29T04:50:58.592Z,1001.65
2023-01-29T04:51:58.600Z,1001.59
2023-01-29T04:52:58.640Z,1001.52
2023-01-29T04:53:58.580Z,1001.49
2023-01-29T04:54:58.559Z,1001.45
2023-01-29T04:55:58.552Z,1001.38
2023-01-29T04:56:58.538Z,1001.49
2023-01-29T04:57:58.571Z,1001.44
2023-01-29T04:58:58.532Z,1001.47
2023-01-29T04:59:58.520Z,1001.45
2023-01-29T05:00:58.535Z,1001.40
2023-01-29T05:01:58.539Z,1001.36
2023-01-29T05:02:58.576Z,1001.44
2023-01-29T05:03:58.491Z,1001.38
2023-01-29T05:04:58.477Z,1001.43
2023-01-29T05:05:58.479Z,1001.44
2023-01-29T05:06:58.453Z,1001.46
2023-01-29T05:07:58.457Z,1001.48
2023-01-29T05:08:58.443Z,1001.42
2023-01-29T05:09:58.429Z,1001.42
2023-01-29T05:10:58.412Z,1001.45
2023-01-29T05:11:58.429Z,1001.49
2023-01-29T05:12:58.387Z,1001.57
2023-01-29T05:13:58.373Z,1001.52
2023-01-29T05:14:58.490Z,1001.53
2023-01-29T05:15:58.464Z,1001.55
2023-01-29T05:16:58.370Z,1001.47
2023-01-29T05:17:58.397Z,1001.57
2023-01-29T05:18:58.330Z,1001.58
2023-01-29T05:19:58.344Z,1001.53
2023-01-29T05:20:58.326Z,1001.55
2023-01-29T05:21:58.317Z,1001.59
2023-01-29T05:22:58.326Z,1001.57
2023-01-29T05:23:58.298Z,1001.53
2023-01-29T05:24:58.272Z,1001.56
2023-01-29T05:25:58.270Z,1001.57
2023-01-29T05:26:58.264Z,1001.53
2023-01-29T05:27:58.270Z,1001.50
2023-01-29T05:28:58.243Z,1001.49
2023-01-29T05:29:58.237Z,1001.49
2023-01-29T05:30:58.426Z,1001.48
2023-01-29T05:31:58.264Z,1001.48
2023-01-29T05:32:58.202Z,1001.48
2023-01-29T05:33:58.201Z,1001.44
2023-01-29T05:34:58.207Z,1001.41
2023-01-29T05:35:58.200Z,1001.37
2023-01-29T05:36:58.173Z,1001.39
2023-01-29T05:37:58.149Z,1001.43
2023-01-29T05:38:58.144Z,1001.41
2023-01-29T05:39:58.138Z,1001.39
2023-01-29T05:40:58.134Z,1001.41
2023-01-29T05:41:58.120Z,1001.38
2023-01-29T05:42:58.109Z,1001.36
2023-01-29T05:43:58.081Z,1001.42
2023-01-29T05:44:58.122Z,1001.36
2023-01-29T05:45:58.111Z,1001.30
2023-01-29T05:46:58.066Z,1001.23
2023-01-29T05:47:58.067Z,1001.16
2023-01-29T05:48:58.072Z,1001.25
2023-01-29T05:49:58.041Z,1001.16
2023-01-29T05:50:58.059Z,1001.17
2023-01-29T05:51:58.038Z,1001.20
2023-01-29T05:52:58.013Z,1001.19
2023-01-29T05:53:58.996Z,1001.13
2023-01-29T05:54:58.018Z,1001.24
2023-01-29T05:55:57.981Z,1001.20
2023-01-29T05:56:57.980Z,1001.19
2023-01-29T05:57:57.967Z,1001.08
2023-01-29T05:58:57.972Z,1001.11
2023-01-29T05:59:57.945Z,1001.00
2023-01-29T06:00:57.927Z,1001.07
2023-01-29T06:01:57.966Z,1000.99
2023-01-29T06:02:57.936Z,1000.97
2023-01-29T06:03:57.926Z,1000.97
2023-01-29T06:04:57.891Z,1000.91
2023-01-29T06:05:57.876Z,1000.88
2023-01-29T06:06:57.876Z,1000.94
2023-01-29T06:07:57.853Z,1000.97
2023-01-29T06:08:57.850Z,1001.05
2023-01-29T06:09:57.872Z,1001.12
2023-01-29T06:10:57.824Z,1001.11
2023-01-29T06:11:57.832Z,1001.18
2023-01-29T06:12:57.834Z,1001.15
2023-01-29T06:13:57.800Z,1001.22
2023-01-29T06:14:57.798Z,1001.20
2023-01-29T06:15:57.886Z,1001.18
2023-01-29T06:16:57.775Z,1001.20
2023-01-29T06:17:57.792Z,1001.33
2023-01-29T06:18:57.750Z,1001.31
2023-01-29T06:19:57.752Z,1001.27
2023-01-29T06:20:57.725Z,1001.28
2023-01-29T06:21:57.732Z,1001.27
2023-01-29T06:22:57.743Z,1001.26
2023-01-29T06:23:57.718Z,1001.33
2023-01-29T06:24:57.690Z,1001.30
2023-01-29T06:25:57.684Z,1001.31
2023-01-29T06:26:57.671Z,1001.33
2023-01-29T06:27:59.453Z,1001.33
2023-01-29T06:28:58.680Z,1001.36
2023-01-29T06:29:58.633Z,1001.42
2023-01-29T06:31:01.282Z,1001.43
2023-01-29T06:31:57.732Z,1001.43
2023-01-29T06:32:57.610Z,1001.39
2023-01-29T06:33:57.621Z,1001.38
2023-01-29T06:34:57.602Z,1001.44
2023-01-29T06:35:57.586Z,1001.41
2023-01-29T06:36:57.578Z,1001.45
2023-01-29T06:37:57.566Z,1001.51
2023-01-29T06:38:57.583Z,1001.48
2023-01-29T06:39:57.556Z,1001.48
2023-01-29T06:40:57.533Z,1001.47
2023-01-29T06:41:57.563Z,1001.47
2023-01-29T06:42:57.504Z,1001.46
2023-01-29T06:43:57.546Z,1001.47
2023-01-29T06:44:57.506Z,1001.47
2023-01-29T06:45:57.524Z,1001.46
2023-01-29T06:46:57.481Z,1001.49
2023-01-29T06:47:58.841Z,1001.51
2023-01-29T06:48:57.468Z,1001.50
2023-01-29T06:49:57.483Z,1001.54
2023-01-29T06:50:57.446Z,1001.56
2023-01-29T06:51:57.431Z,1001.55
2023-01-29T06:52:57.421Z,1001.51
2023-01-29T06:53:57.449Z,1001.53
2023-01-29T06:54:57.398Z,1001.52
2023-01-29T06:55:57.376Z,1001.55
2023-01-29T06:56:57.398Z,1001.67
2023-01-29T06:57:57.410Z,1001.69
2023-01-29T06:58:57.410Z,1001.66
2023-01-29T06:59:57.371Z,1001.66
2023-01-29T07:00:57.374Z,1001.63
2023-01-29T07:01:57.356Z,1001.67
2023-01-29T07:02:57.323Z,1001.54
2023-01-29T07:03:57.326Z,1001.54
2023-01-29T07:04:57.334Z,1001.50
2023-01-29T07:06:29.184Z,1001.49
2023-01-29T07:06:57.271Z,1001.50
2023-01-29T07:07:57.262Z,1001.54
2023-01-29T07:08:57.261Z,1001.57
2023-01-29T07:09:57.264Z,1001.57
2023-01-29T07:10:57.251Z,1001.55
2023-01-29T07:11:57.231Z,1001.60
2023-01-29T07:12:57.212Z,1001.63
2023-01-29T07:13:57.204Z,1001.67
2023-01-29T07:14:57.194Z,1001.72
2023-01-29T07:15:57.231Z,1001.74
2023-01-29T07:16:57.173Z,1001.83
2023-01-29T07:17:57.189Z,1001.87
2023-01-29T07:18:57.162Z,1001.88
2023-01-29T07:19:57.154Z,1001.85
2023-01-29T07:20:57.133Z,1001.91
2023-01-29T07:21:57.151Z,1001.93
2023-01-29T07:22:57.123Z,1001.91
2023-01-29T07:23:57.129Z,1001.91
2023-01-29T07:24:57.117Z,1001.94
2023-01-29T07:25:57.108Z,1001.94
2023-01-29T07:26:57.071Z,1001.95
2023-01-29T07:27:58.401Z,1001.97
2023-01-29T07:28:57.064Z,1002.01
2023-01-29T07:29:57.055Z,1002.05
2023-01-29T07:30:57.100Z,1002.02
2023-01-29T07:31:57.135Z,1001.99
2023-01-29T07:32:57.026Z,1002.02
2023-01-29T07:33:57.021Z,1002.00
2023-01-29T07:34:56.995Z,1002.03
2023-01-29T07:35:57.004Z,1002.07
2023-01-29T07:36:56.990Z,1002.12
2023-01-29T07:37:56.970Z,1002.14
2023-01-29T07:38:56.970Z,1002.09
2023-01-29T07:39:56.939Z,1002.20
2023-01-29T07:40:56.961Z,1002.15
2023-01-29T07:41:56.958Z,1002.14
2023-01-29T07:42:56.920Z,1002.19
2023-01-29T07:43:56.907Z,1002.10
2023-01-29T07:44:56.898Z,1002.09
2023-01-29T07:45:57.115Z,1002.06
2023-01-29T07:46:56.899Z,1001.96
2023-01-29T07:47:56.862Z,1001.89
2023-01-29T07:48:56.874Z,1001.83
2023-01-29T07:49:56.867Z,1001.83
2023-01-29T07:50:56.836Z,1001.81
2023-01-29T07:51:56.838Z,1001.75
2023-01-29T07:52:56.823Z,1001.74
2023-01-29T07:53:56.832Z,1001.62
2023-01-29T07:54:56.820Z,1001.52
2023-01-29T07:55:56.838Z,1001.39
2023-01-29T07:56:56.783Z,1001.42
2023-01-29T07:57:56.772Z,1001.39
2023-01-29T07:58:56.790Z,1001.29
2023-01-29T07:59:56.761Z,1001.38
2023-01-29T08:00:56.813Z,1001.43
2023-01-29T08:01:56.776Z,1001.43
2023-01-29T08:02:56.727Z,1001.45
2023-01-29T08:03:56.715Z,1001.51
2023-01-29T08:04:56.722Z,1001.56
2023-01-29T08:05:56.700Z,1001.64
2023-01-29T08:06:56.708Z,1001.70
2023-01-29T08:08:06.160Z,1001.62
2023-01-29T08:08:58.670Z,1001.65
2023-01-29T08:09:56.661Z,1001.63
2023-01-29T08:10:56.660Z,1001.56
2023-01-29T08:11:56.664Z,1001.57
2023-01-29T08:12:56.639Z,1001.45
2023-01-29T08:13:56.627Z,1001.57
2023-01-29T08:14:56.625Z,1001.60
2023-01-29T08:15:56.625Z,1001.55
2023-01-29T08:16:56.600Z,1001.54
2023-01-29T08:17:58.313Z,1001.60
2023-01-29T08:18:56.599Z,1001.53
2023-01-29T08:19:56.582Z,1001.52
2023-01-29T08:20:56.596Z,1001.50
2023-01-29T08:21:56.543Z,1001.53
2023-01-29T08:22:56.559Z,1001.55
2023-01-29T08:23:56.570Z,1001.58
2023-01-29T08:25:06.434Z,1001.62
2023-01-29T08:25:58.544Z,1001.69
2023-01-29T08:26:56.508Z,1001.66
2023-01-29T08:27:56.493Z,1001.59
2023-01-29T08:28:56.486Z,1001.57
2023-01-29T08:29:56.468Z,1001.52
2023-01-29T08:30:56.577Z,1001.55
2023-01-29T08:31:56.502Z,1001.63
2023-01-29T08:32:56.430Z,1001.67
2023-01-29T08:33:56.428Z,1001.79
2023-01-29T08:34:56.435Z,1001.82
2023-01-29T08:35:56.399Z,1001.91
2023-01-29T08:36:56.420Z,1001.89
2023-01-29T08:37:56.400Z,1001.97
2023-01-29T08:38:56.385Z,1001.95
2023-01-29T08:39:56.380Z,1001.95
2023-01-29T08:40:56.355Z,1001.97
2023-01-29T08:41:56.346Z,1001.94
2023-01-29T08:42:56.332Z,1002.01
2023-01-29T08:43:56.338Z,1002.01
2023-01-29T08:44:56.340Z,1002.05
2023-01-29T08:45:56.389Z,1001.98
2023-01-29T08:46:56.315Z,1001.98
2023-01-29T08:47:56.313Z,1002.01
2023-01-29T08:48:56.284Z,1002.01
2023-01-29T08:49:56.289Z,1002.00
2023-01-29T08:50:56.265Z,1002.12
2023-01-29T08:51:56.271Z,1002.05
2023-01-29T08:52:56.238Z,1002.04
2023-01-29T08:53:56.254Z,1002.00
2023-01-29T08:54:56.215Z,1002.02
2023-01-29T08:55:56.225Z,1002.05
2023-01-29T08:56:56.197Z,1002.07
2023-01-29T08:57:56.196Z,1002.11
2023-01-29T08:58:57.296Z,1002.08
2023-01-29T08:59:56.172Z,1002.20
2023-01-29T09:00:56.214Z,1002.15
2023-01-29T09:01:56.149Z,1002.16
2023-01-29T09:02:56.150Z,1002.20
2023-01-29T09:03:56.168Z,1002.19
2023-01-29T09:04:56.130Z,1002.20
2023-01-29T09:05:56.111Z,1002.16
2023-01-29T09:06:56.107Z,1002.15
2023-01-29T09:07:56.093Z,1001.99
2023-01-29T09:08:56.106Z,1001.96
2023-01-29T09:09:56.089Z,1001.87
2023-01-29T09:10:56.108Z,1001.84
2023-01-29T09:11:56.062Z,1001.82
2023-01-29T09:12:56.052Z,1001.84
2023-01-29T09:13:56.030Z,1001.86
2023-01-29T09:14:56.044Z,1001.79
2023-01-29T09:15:57.370Z,1001.74
2023-01-29T09:16:56.066Z,1001.78
2023-01-29T09:17:56.033Z,1001.66
2023-01-29T09:18:56.026Z,1001.62
2023-01-29T09:19:55.981Z,1001.58
2023-01-29T09:20:55.983Z,1001.57
2023-01-29T09:21:55.986Z,1001.53
2023-01-29T09:22:55.967Z,1001.59
2023-01-29T09:23:55.945Z,1001.58
2023-01-29T09:24:55.934Z,1001.67
2023-01-29T09:25:55.940Z,1001.73
2023-01-29T09:26:55.908Z,1001.68
2023-01-29T09:27:55.889Z,1001.72
2023-01-29T09:28:55.897Z,1001.59
2023-01-29T09:29:55.886Z,1001.63
2023-01-29T09:30:55.953Z,1001.67
2023-01-29T09:31:55.982Z,1001.61
2023-01-29T09:32:55.870Z,1001.58
2023-01-29T09:33:55.876Z,1001.53
2023-01-29T09:34:55.848Z,1001.43
2023-01-29T09:35:55.852Z,1001.40
2023-01-29T09:36:55.809Z,1001.23
2023-01-29T09:37:55.805Z,1001.32
2023-01-29T09:38:55.794Z,1001.30
2023-01-29T09:39:55.788Z,1001.32
2023-01-29T09:40:55.793Z,1001.37
2023-01-29T09:41:55.803Z,1001.40
2023-01-29T09:42:55.775Z,1001.35
2023-01-29T09:43:55.745Z,1001.39
2023-01-29T09:44:55.751Z,1001.36
2023-01-29T09:45:55.742Z,1001.40
2023-01-29T09:46:55.737Z,1001.35
2023-01-29T09:47:55.706Z,1001.33
2023-01-29T09:48:55.729Z,1001.33
2023-01-29T09:49:55.712Z,1001.31
2023-01-29T09:50:55.683Z,1001.33
2023-01-29T09:51:55.674Z,1001.30
2023-01-29T09:52:55.690Z,1001.34
2023-01-29T09:53:55.663Z,1001.33
2023-01-29T09:54:55.638Z,1001.32
2023-01-29T09:55:55.666Z,1001.37
2023-01-29T09:56:55.647Z,1001.37
2023-01-29T09:57:55.620Z,1001.35
2023-01-29T09:58:55.612Z,1001.31
2023-01-29T09:59:55.607Z,1001.34
2023-01-29T10:00:55.604Z,1001.36
2023-01-29T10:01:55.706Z,1001.26
2023-01-29T10:02:55.589Z,1001.42
2023-01-29T10:03:55.558Z,1001.36
2023-01-29T10:04:55.547Z,1001.36
2023-01-29T10:05:55.555Z,1001.36
2023-01-29T10:06:55.532Z,1001.38
2023-01-29T10:07:55.550Z,1001.31
2023-01-29T10:08:55.517Z,1001.35
2023-01-29T10:09:55.497Z,1001.32
2023-01-29T10:10:55.488Z,1001.35
2023-01-29T10:11:58.004Z,1001.40
2023-01-29T10:12:55.501Z,1001.35
2023-01-29T10:13:55.473Z,1001.28
2023-01-29T10:14:55.463Z,1001.31
2023-01-29T10:15:55.479Z,1001.16
2023-01-29T10:16:55.506Z,1001.27
2023-01-29T10:17:55.421Z,1001.28
2023-01-29T10:18:55.417Z,1001.23
2023-01-29T10:19:55.403Z,1001.19
2023-01-29T10:20:55.400Z,1001.17
2023-01-29T10:21:55.398Z,1001.15
2023-01-29T10:22:55.371Z,1001.13
2023-01-29T10:23:55.388Z,1001.05
2023-01-29T10:24:55.368Z,1001.09
2023-01-29T10:25:55.345Z,1001.08
2023-01-29T10:26:55.341Z,1001.09
2023-01-29T10:27:55.329Z,1001.10
2023-01-29T10:28:55.392Z,1001.14
2023-01-29T10:29:55.312Z,1001.10
2023-01-29T10:30:55.450Z,1000.98
2023-01-29T10:31:55.398Z,1001.01
2023-01-29T10:32:55.282Z,1000.91
2023-01-29T10:34:02.092Z,1000.98
2023-01-29T10:34:56.248Z,1000.95
2023-01-29T10:35:55.932Z,1000.99
2023-01-29T10:36:56.238Z,1000.94
2023-01-29T10:37:55.225Z,1000.92
2023-01-29T10:38:55.237Z,1000.78
2023-01-29T10:39:55.211Z,1000.77
2023-01-29T10:40:55.195Z,1000.80
2023-01-29T10:41:55.209Z,1000.73
2023-01-29T10:42:55.178Z,1000.71
2023-01-29T10:43:55.165Z,1000.76
2023-01-29T10:44:55.168Z,1000.75
2023-01-29T10:45:55.134Z,1000.81
2023-01-29T10:46:55.132Z,1000.85
2023-01-29T10:47:55.129Z,1000.83
2023-01-29T10:48:55.119Z,1000.80
2023-01-29T10:49:55.170Z,1000.82
2023-01-29T10:50:55.101Z,1000.75
2023-01-29T10:51:55.094Z,1000.77
2023-01-29T10:52:57.045Z,1000.71
2023-01-29T10:53:55.065Z,1000.70
2023-01-29T10:54:55.086Z,1000.65
2023-01-29T10:55:55.058Z,1000.59
2023-01-29T10:56:55.042Z,1000.60
2023-01-29T10:57:55.027Z,1000.61
2023-01-29T10:58:55.082Z,1000.58
2023-01-29T10:59:55.011Z,1000.55
2023-01-29T11:00:55.013Z,1000.51
2023-01-29T11:01:55.092Z,1000.47
2023-01-29T11:02:55.099Z,1000.44
2023-01-29T11:03:55.965Z,1000.44
2023-01-29T11:04:54.964Z,1000.39
2023-01-29T11:05:54.980Z,1000.33
2023-01-29T11:06:54.950Z,1000.34
2023-01-29T11:07:54.957Z,1000.30
2023-01-29T11:08:54.936Z,1000.30
2023-01-29T11:09:54.927Z,1000.27
2023-01-29T11:10:54.932Z,1000.26
2023-01-29T11:11:54.907Z,1000.25
2023-01-29T11:12:54.910Z,1000.20
2023-01-29T11:13:54.895Z,1000.14
2023-01-29T11:14:54.884Z,1000.15
2023-01-29T11:15:54.867Z,1000.05
2023-01-29T11:16:55.444Z,1000.03
2023-01-29T11:17:54.862Z,1000.00
2023-01-29T11:18:54.835Z,1000.07
2023-01-29T11:19:54.825Z,1000.03
2023-01-29T11:20:54.810Z,1000.00
2023-01-29T11:21:54.804Z,999.96
2023-01-29T11:22:54.804Z,999.99
2023-01-29T11:23:54.797Z,999.99
2023-01-29T11:24:54.788Z,999.94
2023-01-29T11:25:54.762Z,1000.00
2023-01-29T11:26:54.767Z,999.94
2023-01-29T11:27:54.751Z,999.90
2023-01-29T11:28:54.748Z,999.88
2023-01-29T11:29:54.745Z,999.92
2023-01-29T11:30:54.765Z,999.86
2023-01-29T11:31:54.748Z,999.80
2023-01-29T11:32:54.715Z,999.76
2023-01-29T11:33:54.681Z,999.78
2023-01-29T11:34:54.678Z,999.80
2023-01-29T11:35:54.665Z,999.74
2023-01-29T11:36:54.701Z,999.77
2023-01-29T11:37:54.650Z,999.72
2023-01-29T11:38:54.638Z,999.78
2023-01-29T11:39:54.628Z,999.74
2023-01-29T11:40:54.613Z,999.67
2023-01-29T11:41:54.648Z,999.64
2023-01-29T11:42:54.617Z,999.59
2023-01-29T11:43:54.592Z,999.61
2023-01-29T11:44:54.576Z,999.62
2023-01-29T11:45:54.603Z,999.59
2023-01-29T11:46:54.567Z,999.55
2023-01-29T11:47:54.546Z,999.53
2023-01-29T11:48:59.139Z,999.61
2023-01-29T11:49:55.527Z,999.64
2023-01-29T11:50:54.538Z,999.56
2023-01-29T11:51:54.513Z,999.57
2023-01-29T11:52:54.514Z,999.58
2023-01-29T11:53:54.491Z,999.52
2023-01-29T11:54:54.498Z,999.48
2023-01-29T11:55:54.468Z,999.47
2023-01-29T11:56:54.494Z,999.46
2023-01-29T11:57:54.463Z,999.41
2023-01-29T11:58:54.439Z,999.34
2023-01-29T11:59:55.440Z,999.26
2023-01-29T12:00:54.432Z,999.29
2023-01-29T12:01:54.436Z,999.21
2023-01-29T12:02:54.411Z,999.17
2023-01-29T12:03:54.474Z,999.17
2023-01-29T12:04:54.386Z,999.14
2023-01-29T12:05:54.381Z,999.07
2023-01-29T12:06:54.401Z,999.10